| time (UTC) | temp C | wind direction | speed KPH | gust KPH | rain 1hr cm | rain 24hr cm | rain mn cm | humidity % | barometer mb |
| 20260502130519 | 20 | 0 | 0.0 | 1.6 | 0.00 | 0.00 | 0.00 | 32 | 1011.8 |
| 20260502123521 | 19 | 0 | 0.0 | 1.6 | 0.00 | 0.00 | 0.00 | 32 | 1011.5 |
| 20260502123103 | 19 | 0 | 0.0 | 0.0 | 0.00 | 0.00 | 0.00 | 31 | 1011.5 |
| 20260502122522 | 19 | 0 | 0.0 | 0.0 | 0.00 | 0.00 | 0.00 | 31 | 1011.4 |
| 20260502122018 | 19 | 0 | 0.0 | 0.0 | 0.00 | 0.00 | 0.00 | 31 | 1011.4 |
| 20260502121538 | 20 | 0 | 0.0 | 0.0 | 0.00 | 0.00 | 0.00 | 31 | 1011.3 |
| 20260502121020 | 20 | 0 | 0.0 | 0.0 | 0.00 | 0.00 | 0.00 | 31 | 1011.3 |
| 20260502120523 | 20 | 0 | 0.0 | 0.0 | 0.00 | 0.00 | 0.00 | 31 | 1011.2 |
| 20260502115521 | 20 | 0 | 0.0 | 0.0 | 0.00 | 0.00 | 0.00 | 31 | 1011.3 |
| 20260502115019 | 20 | 0 | 0.0 | 0.0 | 0.00 | 0.00 | 0.00 | 31 | 1011.2 |
| 20260502114538 | 20 | 0 | 0.0 | 0.0 | 0.00 | 0.00 | 0.00 | 30 | 1011.0 |
| 20260502114020 | 20 | 0 | 0.0 | 0.0 | 0.00 | 0.00 | 0.00 | 30 | 1011.1 |
| 20260502113523 | 20 | 0 | 0.0 | 0.0 | 0.00 | 0.00 | 0.00 | 30 | 1011.1 |
| 20260502113044 | 20 | 0 | 0.0 | 1.6 | 0.00 | 0.00 | 0.00 | 30 | 1010.9 |
| 20260502112520 | 20 | 0 | 0.0 | 3.2 | 0.00 | 0.00 | 0.00 | 30 | 1010.9 |
| 20260502112020 | 20 | 0 | 0.0 | 3.2 | 0.00 | 0.00 | 0.00 | 30 | 1011.0 |
| 20260502111543 | 20 | 335 | 1.6 | 3.2 | 0.00 | 0.00 | 0.00 | 30 | 1011.0 |
| 20260502111020 | 20 | 339 | 1.6 | 3.2 | 0.00 | 0.00 | 0.00 | 30 | 1010.9 |
| 20260502110520 | 20 | 0 | 0.0 | 0.0 | 0.00 | 0.00 | 0.00 | 30 | 1010.9 |
| 20260502110042 | 20 | 0 | 0.0 | 0.0 | 0.00 | 0.00 | 0.00 | 29 | 1010.9 |
| 20260502105522 | 20 | 0 | 0.0 | 0.0 | 0.00 | 0.00 | 0.00 | 29 | 1010.8 |
| 20260502105020 | 20 | 0 | 0.0 | 0.0 | 0.00 | 0.00 | 0.00 | 29 | 1010.9 |
| 20260502104537 | 20 | 0 | 0.0 | 0.0 | 0.00 | 0.00 | 0.00 | 29 | 1010.9 |
| 20260502104019 | 20 | 0 | 0.0 | 0.0 | 0.00 | 0.00 | 0.00 | 29 | 1010.9 |
| 20260502103519 | 21 | 0 | 0.0 | 0.0 | 0.00 | 0.00 | 0.00 | 29 | 1010.8 |
| 20260502103039 | 21 | 0 | 0.0 | 0.0 | 0.00 | 0.00 | 0.00 | 29 | 1010.9 |
| 20260502102522 | 21 | 0 | 0.0 | 1.6 | 0.00 | 0.00 | 0.00 | 29 | 1010.8 |
| 20260502102020 | 21 | 0 | 0.0 | 4.8 | 0.00 | 0.00 | 0.00 | 29 | 1010.8 |
| 20260502101540 | 21 | 0 | 3.2 | 4.8 | 0.00 | 0.00 | 0.00 | 28 | 1010.8 |
| 20260502101021 | 21 | 340 | 1.6 | 4.8 | 0.00 | 0.00 | 0.00 | 28 | 1010.8 |
| 20260502100520 | 21 | 0 | 0.0 | 4.8 | 0.00 | 0.00 | 0.00 | 28 | 1010.7 |
| 20260502091019 | 21 | 56 | 3.2 | 8.0 | 0.00 | 0.00 | 0.00 | 29 | 1010.4 |
| 20260502090519 | 21 | 62 | 4.8 | 8.0 | 0.00 | 0.00 | 0.00 | 29 | 1010.4 |
| 20260502071536 | 21 | 0 | 0.0 | 0.0 | 0.00 | 0.00 | 0.00 | 24 | 1009.8 |
| 20260502071020 | 21 | 0 | 0.0 | 0.0 | 0.00 | 0.00 | 0.00 | 24 | 1009.8 |
| 20260502070520 | 21 | 0 | 0.0 | 0.0 | 0.00 | 0.00 | 0.00 | 24 | 1009.7 |
| 20260502070039 | 21 | 0 | 0.0 | 0.0 | 0.00 | 0.00 | 0.00 | 23 | 1009.8 |
| 20260502065520 | 22 | 0 | 0.0 | 0.0 | 0.00 | 0.00 | 0.00 | 23 | 1009.8 |
| 20260502065019 | 22 | 0 | 0.0 | 0.0 | 0.00 | 0.00 | 0.00 | 23 | 1009.8 |
| 20260502064547 | 22 | 0 | 0.0 | 0.0 | 0.00 | 0.00 | 0.00 | 23 | 1009.9 |
| 20260502064023 | 22 | 0 | 0.0 | 0.0 | 0.00 | 0.00 | 0.00 | 22 | 1009.9 |
| 20260502063520 | 22 | 0 | 0.0 | 0.0 | 0.00 | 0.00 | 0.00 | 22 | 1009.9 |
| 20260502063038 | 22 | 0 | 0.0 | 0.0 | 0.00 | 0.00 | 0.00 | 22 | 1009.9 |
| 20260502062521 | 22 | 0 | 0.0 | 0.0 | 0.00 | 0.00 | 0.00 | 22 | 1009.8 |
| 20260502062019 | 22 | 0 | 0.0 | 0.0 | 0.00 | 0.00 | 0.00 | 22 | 1009.8 |
| 20260502061537 | 22 | 0 | 0.0 | 0.0 | 0.00 | 0.00 | 0.00 | 23 | 1009.8 |
| 20260502061030 | 22 | 0 | 0.0 | 0.0 | 0.00 | 0.00 | 0.00 | 23 | 1009.7 |
| 20260502060524 | 22 | 0 | 0.0 | 0.0 | 0.00 | 0.00 | 0.00 | 22 | 1009.7 |
| 20260502060038 | 22 | 0 | 0.0 | 0.0 | 0.00 | 0.00 | 0.00 | 22 | 1009.7 |
| 20260502055520 | 22 | 0 | 0.0 | 0.0 | 0.00 | 0.00 | 0.00 | 22 | 1009.6 |
| 20260502055021 | 23 | 0 | 0.0 | 3.2 | 0.00 | 0.00 | 0.00 | 22 | 1009.6 |
| 20260502054537 | 23 | 0 | 0.0 | 4.8 | 0.00 | 0.00 | 0.00 | 22 | 1009.5 |
| 20260502054024 | 23 | 158 | 1.6 | 8.0 | 0.00 | 0.00 | 0.00 | 22 | 1009.5 |
| 20260502053521 | 23 | 0 | 1.6 | 8.0 | 0.00 | 0.00 | 0.00 | 21 | 1009.5 |
| 20260502053038 | 24 | 0 | 0.0 | 0.0 | 0.00 | 0.00 | 0.00 | 21 | 1009.4 |
| 20260502052524 | 23 | 0 | 0.0 | 0.0 | 0.00 | 0.00 | 0.00 | 20 | 1009.3 |
| 20260502052025 | 24 | 0 | 0.0 | 0.0 | 0.00 | 0.00 | 0.00 | 20 | 1009.3 |
| 20260502051542 | 24 | 0 | 0.0 | 0.0 | 0.00 | 0.00 | 0.00 | 20 | 1009.2 |
| 20260502051023 | 24 | 0 | 0.0 | 0.0 | 0.00 | 0.00 | 0.00 | 20 | 1009.2 |
| 20260502050523 | 24 | 0 | 0.0 | 0.0 | 0.00 | 0.00 | 0.00 | 20 | 1009.3 |
| 20260502050044 | 24 | 0 | 0.0 | 0.0 | 0.00 | 0.00 | 0.00 | 19 | 1009.2 |
| 20260502045526 | 25 | 0 | 0.0 | 0.0 | 0.00 | 0.00 | 0.00 | 19 | 1009.2 |
| 20260502045024 | 25 | 0 | 0.0 | 0.0 | 0.00 | 0.00 | 0.00 | 19 | 1009.2 |
| 20260502044543 | 25 | 0 | 0.0 | 0.0 | 0.00 | 0.00 | 0.00 | 19 | 1009.2 |
| 20260502044020 | 25 | 0 | 0.0 | 0.0 | 0.00 | 0.00 | 0.00 | 19 | 1009.3 |
| 20260502043524 | 25 | 0 | 0.0 | 0.0 | 0.00 | 0.00 | 0.00 | 19 | 1009.2 |
| 20260502043039 | 25 | 0 | 0.0 | 0.0 | 0.00 | 0.00 | 0.00 | 18 | 1009.2 |
| 20260502042524 | 25 | 0 | 0.0 | 0.0 | 0.00 | 0.00 | 0.00 | 18 | 1009.2 |
| 20260502042024 | 25 | 0 | 0.0 | 0.0 | 0.00 | 0.00 | 0.00 | 17 | 1009.1 |
| 20260502041536 | 26 | 0 | 0.0 | 0.0 | 0.00 | 0.00 | 0.00 | 17 | 1009.1 |
| 20260502041024 | 26 | 0 | 0.0 | 0.0 | 0.00 | 0.00 | 0.00 | 17 | 1009.0 |
| 20260502040524 | 26 | 0 | 0.0 | 0.0 | 0.00 | 0.00 | 0.00 | 17 | 1009.0 |
| 20260502040035 | 26 | 0 | 0.0 | 0.0 | 0.00 | 0.00 | 0.00 | 16 | 1008.9 |
| 20260502035524 | 26 | 0 | 0.0 | 0.0 | 0.00 | 0.00 | 0.00 | 17 | 1008.8 |
| 20260502035024 | 26 | 0 | 0.0 | 0.0 | 0.00 | 0.00 | 0.00 | 16 | 1008.8 |
| 20260502034539 | 26 | 0 | 0.0 | 0.0 | 0.00 | 0.00 | 0.00 | 16 | 1008.8 |
| 20260502034022 | 26 | 0 | 0.0 | 0.0 | 0.00 | 0.00 | 0.00 | 16 | 1008.7 |
| 20260502033524 | 27 | 0 | 0.0 | 0.0 | 0.00 | 0.00 | 0.00 | 16 | 1008.6 |
| 20260502033037 | 27 | 0 | 0.0 | 0.0 | 0.00 | 0.00 | 0.00 | 16 | 1008.6 |
| 20260502032525 | 27 | 0 | 0.0 | 0.0 | 0.00 | 0.00 | 0.00 | 16 | 1008.5 |
| 20260502032024 | 27 | 0 | 0.0 | 1.6 | 0.00 | 0.00 | 0.00 | 16 | 1008.3 |
| 20260502031537 | 27 | 0 | 0.0 | 1.6 | 0.00 | 0.00 | 0.00 | 16 | 1008.3 |
| 20260502031027 | 27 | 0 | 0.0 | 0.0 | 0.00 | 0.00 | 0.00 | 16 | 1008.3 |
| 20260502030521 | 27 | 0 | 0.0 | 1.6 | 0.00 | 0.00 | 0.00 | 16 | 1008.2 |
| 20260502030044 | 27 | 0 | 0.0 | 1.6 | 0.00 | 0.00 | 0.00 | 15 | 1008.0 |
| 20260502025524 | 27 | 273 | 0.0 | 1.6 | 0.00 | 0.00 | 0.00 | 15 | 1008.0 |
| 20260502025021 | 28 | 0 | 0.0 | 1.6 | 0.00 | 0.00 | 0.00 | 15 | 1008.0 |
| 20260502024538 | 28 | 0 | 0.0 | 1.6 | 0.00 | 0.00 | 0.00 | 15 | 1007.9 |
| 20260502024019 | 28 | 0 | 0.0 | 1.6 | 0.00 | 0.00 | 0.00 | 15 | 1007.8 |
| 20260502023519 | 28 | 0 | 0.0 | 1.6 | 0.00 | 0.00 | 0.00 | 15 | 1007.8 |
| 20260502023036 | 28 | 0 | 0.0 | 6.4 | 0.00 | 0.00 | 0.00 | 15 | 1007.7 |
| 20260502022522 | 28 | 0 | 0.0 | 6.4 | 0.00 | 0.00 | 0.00 | 15 | 1007.7 |
| 20260502022022 | 28 | 284 | 0.0 | 6.4 | 0.00 | 0.00 | 0.00 | 15 | 1007.7 |
| 20260502021538 | 28 | 273 | 1.6 | 6.4 | 0.00 | 0.00 | 0.00 | 15 | 1007.6 |
| 20260502021019 | 29 | 284 | 0.0 | 9.7 | 0.00 | 0.00 | 0.00 | 15 | 1007.6 |
| 20260502020519 | 29 | 0 | 1.6 | 9.7 | 0.00 | 0.00 | 0.00 | 14 | 1007.5 |
| 20260502020037 | 29 | 0 | 0.0 | 8.0 | 0.00 | 0.00 | 0.00 | 14 | 1007.5 |
| 20260502015520 | 30 | 302 | 3.2 | 9.7 | 0.00 | 0.00 | 0.00 | 14 | 1007.6 |
| 20260502015023 | 30 | 298 | 3.2 | 11.3 | 0.00 | 0.00 | 0.00 | 14 | 1007.5 |
| 20260502014538 | 30 | 313 | 4.8 | 11.3 | 0.00 | 0.00 | 0.00 | 14 | 1007.5 |
| 20260502014019 | 30 | 292 | 3.2 | 12.9 | 0.00 | 0.00 | 0.00 | 14 | 1007.5 |
| 20260502013519 | 30 | 0 | 1.6 | 12.9 | 0.00 | 0.00 | 0.00 | 14 | 1007.5 |
| 20260502013037 | 30 | 263 | 4.8 | 11.3 | 0.00 | 0.00 | 0.00 | 15 | 1007.5 |
| 20260502012519 | 31 | 315 | 1.6 | 12.9 | 0.00 | 0.00 | 0.00 | 15 | 1007.5 |
| 20260502012019 | 31 | 288 | 4.8 | 12.9 | 0.00 | 0.00 | 0.00 | 15 | 1007.5 |
| 20260502011535 | 31 | 302 | 3.2 | 12.9 | 0.00 | 0.00 | 0.00 | 15 | 1007.5 |
| 20260502011021 | 30 | 286 | 6.4 | 17.7 | 0.00 | 0.00 | 0.00 | 15 | 1007.5 |
| 20260502010519 | 31 | 340 | 8.0 | 17.7 | 0.00 | 0.00 | 0.00 | 15 | 1007.5 |
| 20260502010035 | 31 | 339 | 6.4 | 14.5 | 0.00 | 0.00 | 0.00 | 16 | 1007.5 |
| 20260502005519 | 31 | 304 | 6.4 | 16.1 | 0.00 | 0.00 | 0.00 | 16 | 1007.5 |
| 20260502005019 | 31 | 298 | 8.0 | 17.7 | 0.00 | 0.00 | 0.00 | 16 | 1007.4 |
| 20260502004538 | 31 | 327 | 8.0 | 17.7 | 0.00 | 0.00 | 0.00 | 16 | 1007.5 |
| 20260502004026 | 31 | 310 | 8.0 | 17.7 | 0.00 | 0.00 | 0.00 | 16 | 1007.5 |
| 20260502003519 | 31 | 311 | 3.2 | 14.5 | 0.00 | 0.00 | 0.00 | 16 | 1007.5 |
| 20260502003037 | 30 | 0 | 1.6 | 14.5 | 0.00 | 0.00 | 0.00 | 16 | 1007.4 |
| 20260502002519 | 31 | 286 | 8.0 | 14.5 | 0.00 | 0.00 | 0.00 | 16 | 1007.4 |
| 20260502002020 | 31 | 269 | 6.4 | 14.5 | 0.00 | 0.00 | 0.00 | 16 | 1007.5 |
| 20260502001546 | 31 | 249 | 3.2 | 14.5 | 0.00 | 0.00 | 0.00 | 17 | 1007.4 |
| 20260502001020 | 31 | 0 | 4.8 | 16.1 | 0.00 | 0.00 | 0.00 | 17 | 1007.4 |
| 20260502000519 | 31 | 293 | 6.4 | 16.1 | 0.00 | 0.00 | 0.00 | 17 | 1007.5 |
| 20260502000037 | 31 | 240 | 8.0 | 16.1 | 0.00 | 0.00 | 0.00 | 17 | 1007.5 |
| 20260501235520 | 31 | 0 | 3.2 | 12.9 | 0.00 | 0.00 | 0.00 | 17 | 1007.4 |
| 20260501235025 | 31 | 321 | 3.2 | 14.5 | 0.00 | 0.00 | 0.00 | 18 | 1007.4 |
| 20260501234541 | 31 | 192 | 6.4 | 14.5 | 0.00 | 0.00 | 0.00 | 18 | 1007.5 |
| 20260501234020 | 31 | 244 | 4.8 | 14.5 | 0.00 | 0.00 | 0.00 | 18 | 1007.4 |
| 20260501233522 | 31 | 219 | 6.4 | 16.1 | 0.00 | 0.00 | 0.00 | 18 | 1007.5 |
| 20260501233040 | 31 | 222 | 4.8 | 16.1 | 0.00 | 0.00 | 0.00 | 19 | 1007.6 |
| 20260501232520 | 31 | 301 | 3.2 | 11.3 | 0.00 | 0.00 | 0.00 | 19 | 1007.7 |
| 20260501232022 | 31 | 318 | 3.2 | 11.3 | 0.00 | 0.00 | 0.00 | 19 | 1007.8 |
| 20260501231539 | 31 | 300 | 0.0 | 12.9 | 0.00 | 0.00 | 0.00 | 19 | 1007.8 |
| 20260501231022 | 30 | 0 | 3.2 | 16.1 | 0.00 | 0.00 | 0.00 | 20 | 1007.8 |
| 20260501230522 | 30 | 0 | 3.2 | 16.1 | 0.00 | 0.00 | 0.00 | 20 | 1007.9 |
| 20260501230040 | 30 | 260 | 8.0 | 20.9 | 0.00 | 0.00 | 0.00 | 20 | 1007.9 |
| 20260501225521 | 30 | 292 | 4.8 | 20.9 | 0.00 | 0.00 | 0.00 | 20 | 1007.9 |
| 20260501225025 | 30 | 288 | 6.4 | 16.1 | 0.00 | 0.00 | 0.00 | 20 | 1008.0 |
| 20260501224539 | 30 | 219 | 6.4 | 19.3 | 0.00 | 0.00 | 0.00 | 20 | 1007.9 |
| 20260501224021 | 30 | 232 | 9.7 | 20.9 | 0.00 | 0.00 | 0.00 | 20 | 1008.0 |
| 20260501223523 | 30 | 305 | 11.3 | 20.9 | 0.00 | 0.00 | 0.00 | 20 | 1008.1 |
| 20260501223041 | 30 | 24 | 4.8 | 16.1 | 0.00 | 0.00 | 0.00 | 20 | 1008.1 |
| 20260501222521 | 30 | 349 | 3.2 | 16.1 | 0.00 | 0.00 | 0.00 | 20 | 1008.3 |
| 20260501222023 | 30 | 298 | 1.6 | 19.3 | 0.00 | 0.00 | 0.00 | 21 | 1008.3 |
| 20260501221549 | 30 | 0 | 4.8 | 19.3 | 0.00 | 0.00 | 0.00 | 21 | 1008.4 |
| 20260501221020 | 31 | 235 | 6.4 | 19.3 | 0.00 | 0.00 | 0.00 | 21 | 1008.5 |
| 20260501220520 | 30 | 0 | 1.6 | 14.5 | 0.00 | 0.00 | 0.00 | 21 | 1008.4 |
| 20260501220041 | 30 | 0 | 4.8 | 14.5 | 0.00 | 0.00 | 0.00 | 21 | 1008.6 |
| 20260501215521 | 30 | 288 | 6.4 | 14.5 | 0.00 | 0.00 | 0.00 | 21 | 1008.6 |
| 20260501215022 | 30 | 203 | 0.0 | 11.3 | 0.00 | 0.00 | 0.00 | 21 | 1008.7 |
| 20260501214543 | 30 | 0 | 0.0 | 12.9 | 0.00 | 0.00 | 0.00 | 21 | 1008.7 |
| 20260501214022 | 30 | 264 | 6.4 | 14.5 | 0.00 | 0.00 | 0.00 | 21 | 1008.8 |
| 20260501213521 | 30 | 279 | 4.8 | 14.5 | 0.00 | 0.00 | 0.00 | 21 | 1008.9 |
| 20260501213036 | 30 | 169 | 6.4 | 14.5 | 0.00 | 0.00 | 0.00 | 20 | 1008.9 |
| 20260501212521 | 30 | 159 | 6.4 | 12.9 | 0.00 | 0.00 | 0.00 | 20 | 1009.0 |
| 20260501212020 | 30 | 116 | 0.0 | 12.9 | 0.00 | 0.00 | 0.00 | 21 | 1009.2 |
| 20260501211535 | 30 | 0 | 4.8 | 12.9 | 0.00 | 0.00 | 0.00 | 21 | 1009.1 |
| 20260501211020 | 30 | 29 | 1.6 | 12.9 | 0.00 | 0.00 | 0.00 | 21 | 1009.2 |
| 20260501210520 | 30 | 331 | 1.6 | 16.1 | 0.00 | 0.00 | 0.00 | 21 | 1009.4 |
| 20260501210038 | 29 | 223 | 4.8 | 17.7 | 0.00 | 0.00 | 0.00 | 21 | 1009.4 |
| 20260501205520 | 30 | 244 | 6.4 | 17.7 | 0.00 | 0.00 | 0.00 | 21 | 1009.4 |
| 20260501205020 | 30 | 0 | 3.2 | 12.9 | 0.00 | 0.00 | 0.00 | 21 | 1009.4 |
| 20260501204538 | 30 | 0 | 3.2 | 12.9 | 0.00 | 0.00 | 0.00 | 21 | 1009.5 |
| 20260501204019 | 29 | 153 | 3.2 | 11.3 | 0.00 | 0.00 | 0.00 | 21 | 1009.6 |
| 20260501203520 | 28 | 25 | 4.8 | 11.3 | 0.00 | 0.00 | 0.00 | 21 | 1009.7 |
| 20260501203037 | 29 | 308 | 1.6 | 9.7 | 0.00 | 0.00 | 0.00 | 21 | 1009.8 |
| 20260501202520 | 29 | 146 | 1.6 | 9.7 | 0.00 | 0.00 | 0.00 | 22 | 1009.8 |
| 20260501202019 | 29 | 111 | 3.2 | 9.7 | 0.00 | 0.00 | 0.00 | 22 | 1009.8 |
| 20260501201537 | 28 | 0 | 0.0 | 11.3 | 0.00 | 0.00 | 0.00 | 22 | 1009.8 |
| 20260501201019 | 28 | 0 | 3.2 | 11.3 | 0.00 | 0.00 | 0.00 | 22 | 1009.8 |
| 20260501200519 | 29 | 112 | 3.2 | 11.3 | 0.00 | 0.00 | 0.00 | 22 | 1009.9 |
| 20260501200042 | 28 | 250 | 4.8 | 11.3 | 0.00 | 0.00 | 0.00 | 23 | 1010.0 |
| 20260501195519 | 28 | 157 | 4.8 | 11.3 | 0.00 | 0.00 | 0.00 | 24 | 1010.0 |
| 20260501195019 | 28 | 290 | 1.6 | 9.7 | 0.00 | 0.00 | 0.00 | 24 | 1010.2 |
| 20260501194541 | 28 | 217 | 1.6 | 8.0 | 0.00 | 0.00 | 0.00 | 25 | 1010.1 |
| 20260501194018 | 28 | 0 | 0.0 | 9.7 | 0.00 | 0.00 | 0.00 | 25 | 1010.2 |
| 20260501193518 | 27 | 69 | 1.6 | 9.7 | 0.00 | 0.00 | 0.00 | 26 | 1010.3 |
| 20260501193039 | 27 | 26 | 3.2 | 9.7 | 0.00 | 0.00 | 0.00 | 26 | 1010.4 |
| 20260501192518 | 27 | 346 | 3.2 | 14.5 | 0.00 | 0.00 | 0.00 | 26 | 1010.4 |
| 20260501192019 | 27 | 276 | 4.8 | 16.1 | 0.00 | 0.00 | 0.00 | 26 | 1010.6 |
| 20260501191550 | 27 | 304 | 6.4 | 16.1 | 0.00 | 0.00 | 0.00 | 27 | 1010.6 |
| 20260501191019 | 27 | 242 | 1.6 | 11.3 | 0.00 | 0.00 | 0.00 | 27 | 1010.7 |
| 20260501190521 | 27 | 300 | 4.8 | 12.9 | 0.00 | 0.00 | 0.00 | 27 | 1010.8 |
| 20260501190047 | 27 | 315 | 6.4 | 12.9 | 0.00 | 0.00 | 0.00 | 27 | 1010.8 |
| 20260501185519 | 27 | 250 | 3.2 | 12.9 | 0.00 | 0.00 | 0.00 | 27 | 1010.8 |
| 20260501185018 | 27 | 305 | 1.6 | 11.3 | 0.00 | 0.00 | 0.00 | 27 | 1010.9 |
| 20260501184541 | 27 | 291 | 1.6 | 11.3 | 0.00 | 0.00 | 0.00 | 27 | 1011.0 |
| 20260501184019 | 27 | 0 | 0.0 | 11.3 | 0.00 | 0.00 | 0.00 | 28 | 1011.1 |
| 20260501183523 | 27 | 289 | 3.2 | 11.3 | 0.00 | 0.00 | 0.00 | 28 | 1011.2 |
| 20260501183038 | 27 | 0 | 0.0 | 17.7 | 0.00 | 0.00 | 0.00 | 28 | 1011.3 |
| 20260501182518 | 27 | 0 | 4.8 | 17.7 | 0.00 | 0.00 | 0.00 | 28 | 1011.3 |
| 20260501182022 | 27 | 10 | 3.2 | 14.5 | 0.00 | 0.00 | 0.00 | 29 | 1011.4 |
| 20260501181549 | 26 | 0 | 3.2 | 12.9 | 0.00 | 0.00 | 0.00 | 29 | 1011.5 |
| 20260501181020 | 27 | 0 | 3.2 | 12.9 | 0.00 | 0.00 | 0.00 | 29 | 1011.6 |
| 20260501180521 | 26 | 313 | 0.0 | 12.9 | 0.00 | 0.00 | 0.00 | 29 | 1011.6 |
| 20260501180044 | 26 | 86 | 1.6 | 12.9 | 0.00 | 0.00 | 0.00 | 29 | 1011.7 |
| 20260501175518 | 26 | 36 | 4.8 | 11.3 | 0.00 | 0.00 | 0.00 | 29 | 1011.7 |
| 20260501175018 | 26 | 0 | 1.6 | 9.7 | 0.00 | 0.00 | 0.00 | 29 | 1011.7 |
| 20260501174537 | 26 | 0 | 0.0 | 8.0 | 0.00 | 0.00 | 0.00 | 30 | 1011.8 |
| 20260501174018 | 26 | 0 | 1.6 | 14.5 | 0.00 | 0.00 | 0.00 | 30 | 1011.8 |
| 20260501173522 | 26 | 0 | 6.4 | 14.5 | 0.00 | 0.00 | 0.00 | 30 | 1011.8 |
| 20260501173100 | 26 | 0 | 3.2 | 11.3 | 0.00 | 0.00 | 0.00 | 31 | 1011.8 |
| 20260501172522 | 25 | 0 | 0.0 | 11.3 | 0.00 | 0.00 | 0.00 | 31 | 1011.8 |
| 20260501172019 | 25 | 303 | 3.2 | 9.7 | 0.00 | 0.00 | 0.00 | 31 | 1011.8 |
| 20260501171538 | 26 | 0 | 1.6 | 11.3 | 0.00 | 0.00 | 0.00 | 31 | 1011.9 |
| 20260501171019 | 26 | 336 | 1.6 | 11.3 | 0.00 | 0.00 | 0.00 | 32 | 1011.9 |
| 20260501170521 | 26 | 143 | 0.0 | 8.0 | 0.00 | 0.00 | 0.00 | 32 | 1011.8 |
| 20260501170038 | 26 | 0 | 1.6 | 4.8 | 0.00 | 0.00 | 0.00 | 33 | 1011.9 |
| 20260501165523 | 26 | 0 | 0.0 | 4.8 | 0.00 | 0.00 | 0.00 | 33 | 1012.0 |
| 20260501165023 | 25 | 223 | 1.6 | 4.8 | 0.00 | 0.00 | 0.00 | 34 | 1011.9 |
| 20260501164546 | 25 | 0 | 0.0 | 4.8 | 0.00 | 0.00 | 0.00 | 34 | 1011.8 |
| 20260501164019 | 25 | 0 | 0.0 | 4.8 | 0.00 | 0.00 | 0.00 | 35 | 1011.9 |
| 20260501163525 | 25 | 0 | 0.0 | 4.8 | 0.00 | 0.00 | 0.00 | 36 | 1011.9 |
| 20260501163039 | 24 | 0 | 0.0 | 6.4 | 0.00 | 0.00 | 0.00 | 36 | 1011.9 |
| 20260501162519 | 23 | 41 | 0.0 | 6.4 | 0.00 | 0.00 | 0.00 | 36 | 1011.8 |
| 20260501162020 | 23 | 0 | 0.0 | 6.4 | 0.00 | 0.00 | 0.00 | 36 | 1011.8 |
| 20260501161537 | 23 | 88 | 0.0 | 6.4 | 0.00 | 0.00 | 0.00 | 36 | 1011.8 |
| 20260501161018 | 23 | 0 | 1.6 | 6.4 | 0.00 | 0.00 | 0.00 | 37 | 1011.7 |
| 20260501160518 | 23 | 0 | 0.0 | 4.8 | 0.00 | 0.00 | 0.00 | 37 | 1011.6 |
| 20260501160037 | 23 | 0 | 0.0 | 4.8 | 0.00 | 0.00 | 0.00 | 37 | 1011.6 |
| 20260501155523 | 23 | 140 | 0.0 | 4.8 | 0.00 | 0.00 | 0.00 | 38 | 1011.5 |
| 20260501155019 | 22 | 223 | 0.0 | 4.8 | 0.00 | 0.00 | 0.00 | 38 | 1011.5 |
| 20260501154538 | 22 | 0 | 0.0 | 4.8 | 0.00 | 0.00 | 0.00 | 38 | 1011.5 |
| 20260501154021 | 22 | 0 | 0.0 | 4.8 | 0.00 | 0.00 | 0.00 | 38 | 1011.4 |
| 20260501153520 | 23 | 0 | 0.0 | 4.8 | 0.00 | 0.00 | 0.00 | 39 | 1011.4 |
| 20260501153057 | 22 | 0 | 0.0 | 6.4 | 0.00 | 0.00 | 0.00 | 39 | 1011.4 |
| 20260501152518 | 22 | 0 | 1.6 | 6.4 | 0.00 | 0.00 | 0.00 | 39 | 1011.5 |
| 20260501152018 | 22 | 0 | 0.0 | 8.0 | 0.00 | 0.00 | 0.00 | 39 | 1011.4 |
| 20260501151539 | 22 | 0 | 0.0 | 8.0 | 0.00 | 0.00 | 0.00 | 40 | 1011.4 |
| 20260501151018 | 22 | 234 | 3.2 | 8.0 | 0.00 | 0.00 | 0.00 | 40 | 1011.2 |
| 20260501150521 | 22 | 221 | 0.0 | 6.4 | 0.00 | 0.00 | 0.00 | 40 | 1011.2 |
| 20260501150038 | 22 | 217 | 0.0 | 4.8 | 0.00 | 0.00 | 0.00 | 40 | 1011.2 |
| 20260501145519 | 22 | 0 | 0.0 | 6.4 | 0.00 | 0.00 | 0.00 | 41 | 1011.2 |
| 20260501145022 | 22 | 0 | 0.0 | 6.4 | 0.00 | 0.00 | 0.00 | 41 | 1011.2 |
| 20260501144545 | 22 | 162 | 0.0 | 4.8 | 0.00 | 0.00 | 0.00 | 42 | 1011.1 |
| 20260501144022 | 21 | 0 | 0.0 | 6.4 | 0.00 | 0.00 | 0.00 | 42 | 1011.1 |
| 20260501143519 | 21 | 0 | 0.0 | 6.4 | 0.00 | 0.00 | 0.00 | 42 | 1011.0 |
| 20260501143038 | 21 | 123 | 0.0 | 6.4 | 0.00 | 0.00 | 0.00 | 43 | 1011.0 |
| 20260501142523 | 21 | 0 | 1.6 | 4.8 | 0.00 | 0.00 | 0.00 | 43 | 1010.9 |
| 20260501142019 | 21 | 0 | 1.6 | 4.8 | 0.00 | 0.00 | 0.00 | 43 | 1010.9 |
| 20260501141555 | 21 | 0 | 0.0 | 4.8 | 0.00 | 0.00 | 0.00 | 43 | 1010.8 |
| 20260501141021 | 21 | 144 | 0.0 | 4.8 | 0.00 | 0.00 | 0.00 | 43 | 1010.8 |
| 20260501140519 | 20 | 0 | 0.0 | 6.4 | 0.00 | 0.00 | 0.00 | 43 | 1010.7 |
| 20260501140035 | 20 | 0 | 1.6 | 8.0 | 0.00 | 0.00 | 0.00 | 44 | 1010.6 |
| 20260501135519 | 20 | 146 | 0.0 | 8.0 | 0.00 | 0.00 | 0.00 | 44 | 1010.5 |
| 20260501135019 | 20 | 0 | 0.0 | 1.6 | 0.00 | 0.00 | 0.00 | 44 | 1010.3 |
| 20260501134540 | 20 | 0 | 0.0 | 0.0 | 0.00 | 0.00 | 0.00 | 45 | 1010.2 |
| 20260501134019 | 20 | 0 | 0.0 | 0.0 | 0.00 | 0.00 | 0.00 | 45 | 1010.1 |
| 20260501133518 | 20 | 0 | 0.0 | 0.0 | 0.00 | 0.00 | 0.00 | 46 | 1010.2 |